createdAt,value
2023-04-28T00:00:46.829Z,60.71
2023-04-28T00:03:18.959Z,61.14
2023-04-28T00:05:45.784Z,61.39
2023-04-28T00:08:12.549Z,61.08
2023-04-28T00:10:39.119Z,60.96
2023-04-28T00:13:05.802Z,60.92
2023-04-28T00:15:32.885Z,60.88
2023-04-28T00:17:59.507Z,61.24
2023-04-28T00:20:26.059Z,61.30
2023-04-28T00:22:52.835Z,61.55
2023-04-28T00:25:19.396Z,61.79
2023-04-28T00:27:45.743Z,61.60
2023-04-28T00:30:12.205Z,62.02
2023-04-28T00:32:38.812Z,61.89
2023-04-28T00:35:05.466Z,62.16
2023-04-28T00:37:35.145Z,62.14
2023-04-28T00:40:02.041Z,62.00
2023-04-28T00:42:28.648Z,62.09
2023-04-28T00:44:55.168Z,62.40
2023-04-28T00:47:21.886Z,62.39
2023-04-28T00:49:48.413Z,62.42
2023-04-28T00:52:15.343Z,62.15
2023-04-28T00:54:42.086Z,61.83
2023-04-28T00:57:09.530Z,61.75
2023-04-28T00:59:36.287Z,62.00
2023-04-28T01:02:03.058Z,62.03
2023-04-28T01:04:30.499Z,62.27
2023-04-28T01:06:57.944Z,62.54
2023-04-28T01:09:28.019Z,63.52
2023-04-28T01:11:55.748Z,63.40
2023-04-28T01:14:40.659Z,63.97
2023-04-28T01:17:07.897Z,64.31
2023-04-28T01:19:34.506Z,62.90
2023-04-28T01:22:01.189Z,62.47
2023-04-28T01:24:28.037Z,63.57
2023-04-28T01:26:56.399Z,63.40
2023-04-28T01:29:23.172Z,62.77
2023-04-28T01:31:49.566Z,62.97
2023-04-28T01:34:17.140Z,63.95
2023-04-28T01:36:43.842Z,62.79
2023-04-28T01:39:10.327Z,62.43
2023-04-28T01:41:36.713Z,62.49
2023-04-28T01:44:04.215Z,62.46
2023-04-28T01:46:30.791Z,62.71
2023-04-28T01:48:57.818Z,63.14
2023-04-28T01:51:24.388Z,63.10
2023-04-28T01:53:51.019Z,62.79
2023-04-28T01:56:18.008Z,62.65
2023-04-28T01:58:44.595Z,62.61
2023-04-28T02:01:11.658Z,62.76
2023-04-28T02:03:38.787Z,62.73
2023-04-28T02:06:05.313Z,62.66
2023-04-28T02:08:32.038Z,63.17
2023-04-28T02:10:58.441Z,64.41
2023-04-28T02:13:25.437Z,64.99
2023-04-28T02:15:53.149Z,65.20
2023-04-28T02:18:20.814Z,63.77
2023-04-28T02:20:47.201Z,63.37
2023-04-28T02:23:13.697Z,63.25
2023-04-28T02:25:40.069Z,63.21
2023-04-28T02:28:06.488Z,63.24
2023-04-28T02:30:34.695Z,63.32
2023-04-28T02:33:01.124Z,63.51
2023-04-28T02:35:27.840Z,63.55
2023-04-28T02:37:54.664Z,63.71
2023-04-28T02:40:21.106Z,63.65
2023-04-28T02:42:48.061Z,63.86
2023-04-28T02:45:14.598Z,63.70
2023-04-28T02:47:41.298Z,63.72
2023-04-28T02:50:08.122Z,63.76
2023-04-28T02:52:34.531Z,63.86
2023-04-28T02:55:01.314Z,63.88
2023-04-28T02:57:27.840Z,63.94
2023-04-28T02:59:54.273Z,65.03
2023-04-28T03:02:21.314Z,66.04
2023-04-28T03:04:47.893Z,66.20
2023-04-28T03:07:14.367Z,66.70
2023-04-28T03:09:42.370Z,65.48
2023-04-28T03:12:09.184Z,64.84
2023-04-28T03:14:35.691Z,64.81
2023-04-28T03:17:02.075Z,65.09
2023-04-28T03:19:28.990Z,65.39
2023-04-28T03:21:55.724Z,65.31
2023-04-28T03:24:22.166Z,65.58
2023-04-28T03:26:50.120Z,65.62
2023-04-28T03:29:16.575Z,65.54
2023-04-28T03:31:43.558Z,65.43
2023-04-28T03:34:10.159Z,65.68
2023-04-28T03:36:36.722Z,65.52
2023-04-28T03:39:08.458Z,65.46
2023-04-28T03:41:34.841Z,65.36
2023-04-28T03:44:19.947Z,65.44
2023-04-28T03:46:48.854Z,65.45
2023-04-28T03:49:18.265Z,65.38
2023-04-28T03:51:44.729Z,65.35
2023-04-28T03:54:11.484Z,65.40
2023-04-28T03:56:38.087Z,65.42
2023-04-28T03:59:04.501Z,65.46
2023-04-28T04:01:30.997Z,65.53
2023-04-28T04:03:57.811Z,65.48
2023-04-28T04:06:24.978Z,65.56
2023-04-28T04:08:51.488Z,65.46
2023-04-28T04:11:17.900Z,65.69
2023-04-28T04:13:44.345Z,65.51
2023-04-28T04:16:15.208Z,65.72
2023-04-28T04:18:42.168Z,66.46
2023-04-28T04:21:19.704Z,67.24
2023-04-28T04:23:46.532Z,68.31
2023-04-28T04:26:13.209Z,68.39
2023-04-28T04:28:40.020Z,66.53
2023-04-28T04:31:10.024Z,66.58
2023-04-28T04:33:36.568Z,66.11
2023-04-28T04:36:03.971Z,66.25
2023-04-28T04:38:33.534Z,67.39
2023-04-28T04:41:08.556Z,66.63
2023-04-28T04:43:34.966Z,66.20
2023-04-28T04:46:02.219Z,67.20
2023-04-28T04:48:29.019Z,66.57
2023-04-28T04:50:58.014Z,66.39
2023-04-28T04:53:25.049Z,66.27
2023-04-28T04:55:53.748Z,66.86
2023-04-28T04:58:20.712Z,66.84
2023-04-28T05:01:14.348Z,65.14
2023-04-28T05:03:41.126Z,64.64
2023-04-28T05:06:07.675Z,64.26
2023-04-28T05:08:44.109Z,64.04
2023-04-28T05:11:10.981Z,63.85
2023-04-28T05:13:37.975Z,63.74
2023-04-28T05:16:07.552Z,63.80
2023-04-28T05:18:52.831Z,63.72
2023-04-28T05:21:20.558Z,63.55
2023-04-28T05:23:48.072Z,63.80
2023-04-28T05:26:14.633Z,64.44
2023-04-28T05:28:41.598Z,64.73
2023-04-28T05:31:08.311Z,63.83
2023-04-28T05:33:34.747Z,63.65
2023-04-28T05:36:01.587Z,63.85
2023-04-28T05:38:29.219Z,63.21
2023-04-28T05:40:55.730Z,62.87
2023-04-28T05:43:22.719Z,62.85
2023-04-28T05:45:49.612Z,62.61
2023-04-28T05:48:16.133Z,62.60
2023-04-28T05:50:43.589Z,62.60
2023-04-28T05:53:10.503Z,62.51
2023-04-28T05:55:37.230Z,62.43
2023-04-28T05:58:05.400Z,62.16
2023-04-28T06:00:32.405Z,61.78
2023-04-28T06:02:59.200Z,61.12
2023-04-28T06:05:26.587Z,61.55
2023-04-28T06:07:55.181Z,61.56
2023-04-28T06:10:22.854Z,61.18
2023-04-28T06:12:49.556Z,60.57
2023-04-28T06:15:16.117Z,59.26
2023-04-28T06:17:42.678Z,59.55
2023-04-28T06:20:09.587Z,58.90
2023-04-28T06:22:37.472Z,58.64
2023-04-28T06:25:04.139Z,59.03
2023-04-28T06:27:35.354Z,58.24
2023-04-28T06:30:01.927Z,58.42
2023-04-28T06:32:28.403Z,58.63
2023-04-28T06:34:56.087Z,58.71
2023-04-28T06:37:23.942Z,57.98
2023-04-28T06:39:50.324Z,58.22
2023-04-28T06:42:16.970Z,57.98
2023-04-28T06:44:43.963Z,55.05
2023-04-28T06:47:11.453Z,53.11
2023-04-28T06:49:38.751Z,54.42
2023-04-28T06:52:05.467Z,54.14
2023-04-28T06:54:32.137Z,53.19
2023-04-28T06:57:00.236Z,53.48
2023-04-28T06:59:26.814Z,53.22
2023-04-28T07:01:53.304Z,53.53
2023-04-28T07:04:20.656Z,52.56
2023-04-28T07:06:47.684Z,50.85
2023-04-28T07:09:14.393Z,50.46
2023-04-28T07:11:41.185Z,47.39
2023-04-28T07:14:07.993Z,45.43
2023-04-28T07:16:35.253Z,45.92
2023-04-28T07:19:02.432Z,48.81
2023-04-28T07:21:29.462Z,47.98
2023-04-28T07:23:56.478Z,48.55
2023-04-28T07:26:23.354Z,48.79
2023-04-28T07:28:49.888Z,45.34
2023-04-28T07:31:19.950Z,44.36
2023-04-28T07:33:50.216Z,43.96
2023-04-28T07:36:17.143Z,44.22
2023-04-28T07:38:43.893Z,43.47
2023-04-28T07:41:11.440Z,42.40
2023-04-28T07:43:38.527Z,43.61
2023-04-28T07:46:06.739Z,43.07
2023-04-28T07:48:35.116Z,42.23
2023-04-28T07:51:02.733Z,43.28
2023-04-28T07:53:30.711Z,38.16
2023-04-28T07:55:58.881Z,36.90
2023-04-28T07:58:25.810Z,38.90
2023-04-28T08:00:52.742Z,37.71
2023-04-28T08:03:22.917Z,37.18
2023-04-28T08:05:49.693Z,37.43
2023-04-28T08:08:16.464Z,38.66
2023-04-28T08:10:43.641Z,38.63
2023-04-28T08:13:10.616Z,38.72
2023-04-28T08:15:37.347Z,39.90
2023-04-28T08:18:04.249Z,40.74
2023-04-28T08:20:30.750Z,40.73
2023-04-28T08:22:57.821Z,39.74
2023-04-28T08:25:24.453Z,35.37
2023-04-28T08:27:51.071Z,38.00
2023-04-28T08:30:18.023Z,40.71
2023-04-28T08:32:45.048Z,37.52
2023-04-28T08:35:11.977Z,35.42
2023-04-28T08:37:39.368Z,35.56
2023-04-28T08:40:11.277Z,36.48
2023-04-28T08:42:38.486Z,36.10
2023-04-28T08:45:05.304Z,36.07
2023-04-28T08:47:36.884Z,36.17
2023-04-28T08:50:04.348Z,34.75
2023-04-28T08:52:31.055Z,34.52
2023-04-28T08:54:58.933Z,33.51
2023-04-28T08:57:30.179Z,36.10
2023-04-28T08:59:57.997Z,36.82
2023-04-28T09:02:24.861Z,36.73
2023-04-28T09:04:52.261Z,38.00
2023-04-28T09:07:19.294Z,36.22
2023-04-28T09:09:46.048Z,36.08
2023-04-28T09:12:12.503Z,37.08
2023-04-28T09:14:39.284Z,37.92
2023-04-28T09:17:13.130Z,37.78
2023-04-28T09:19:40.654Z,37.52
2023-04-28T09:22:17.509Z,38.68
2023-04-28T09:24:52.905Z,39.75
2023-04-28T09:27:26.445Z,36.78
2023-04-28T09:29:53.580Z,36.31
2023-04-28T09:32:21.727Z,35.27
2023-04-28T09:34:49.710Z,36.33
2023-04-28T09:37:20.744Z,38.94
2023-04-28T09:39:48.070Z,37.92
2023-04-28T09:42:30.795Z,36.05
2023-04-28T09:44:57.442Z,36.24
2023-04-28T09:47:24.190Z,37.27
2023-04-28T09:49:55.020Z,37.26
2023-04-28T09:52:22.580Z,36.10
2023-04-28T09:54:50.552Z,35.76
2023-04-28T09:57:17.440Z,37.82
2023-04-28T09:59:48.958Z,35.47
2023-04-28T10:02:41.162Z,36.08
2023-04-28T10:05:04.910Z,32.21
2023-04-28T10:07:31.891Z,38.58
2023-04-28T10:09:58.404Z,35.86
2023-04-28T10:12:27.497Z,34.73
2023-04-28T10:14:54.140Z,33.27
2023-04-28T10:17:23.890Z,35.75
2023-04-28T10:19:53.576Z,35.52
2023-04-28T10:22:23.065Z,33.86
2023-04-28T10:25:08.596Z,35.58
2023-04-28T10:27:35.524Z,32.46
2023-04-28T10:30:27.446Z,30.06
2023-04-28T10:33:14.172Z,32.64
2023-04-28T10:35:47.145Z,30.26
2023-04-28T10:38:17.325Z,31.44
2023-04-28T10:40:44.605Z,31.74
2023-04-28T10:43:12.163Z,31.27
2023-04-28T10:45:55.978Z,29.13
2023-04-28T10:48:30.716Z,28.31
2023-04-28T10:50:57.569Z,31.29
2023-04-28T10:53:44.093Z,29.18
2023-04-28T10:56:15.873Z,25.85
2023-04-28T10:58:44.909Z,28.13
2023-04-28T11:01:21.595Z,27.77
2023-04-28T11:03:49.672Z,28.24
2023-04-28T11:06:25.976Z,28.24
2023-04-28T11:08:53.117Z,27.72
2023-04-28T11:11:20.487Z,28.22
2023-04-28T11:13:47.297Z,25.04
2023-04-28T11:16:17.806Z,24.34
2023-04-28T11:18:48.735Z,24.53
2023-04-28T11:21:15.406Z,23.80
2023-04-28T11:23:42.649Z,26.52
2023-04-28T11:26:09.437Z,23.12
2023-04-28T11:28:36.205Z,25.35
2023-04-28T11:31:10.717Z,23.17
2023-04-28T11:33:38.202Z,27.42
2023-04-28T11:36:05.319Z,23.63
2023-04-28T11:38:58.800Z,21.67
2023-04-28T11:41:28.430Z,19.68
2023-04-28T11:43:55.045Z,23.19
2023-04-28T11:46:24.923Z,21.62
2023-04-28T11:49:05.142Z,22.98
2023-04-28T11:51:33.292Z,24.23
2023-04-28T11:54:00.520Z,24.77
2023-04-28T11:56:27.470Z,22.74
2023-04-28T11:59:09.854Z,23.10
2023-04-28T12:01:45.540Z,22.78
2023-04-28T12:04:13.507Z,19.14
2023-04-28T12:06:40.722Z,18.50
2023-04-28T12:09:20.230Z,22.32
2023-04-28T12:11:57.421Z,22.64
2023-04-28T12:14:27.484Z,21.88
2023-04-28T12:16:54.359Z,22.30
2023-04-28T12:19:21.036Z,24.06
2023-04-28T12:22:02.900Z,23.13
2023-04-28T12:24:29.634Z,22.61
2023-04-28T12:27:17.027Z,22.75
2023-04-28T12:29:44.375Z,20.77
2023-04-28T12:32:12.203Z,18.01
2023-04-28T12:34:40.871Z,17.26
2023-04-28T12:37:07.753Z,19.27
2023-04-28T12:39:40.373Z,16.30
2023-04-28T12:42:09.005Z,17.79
2023-04-28T12:44:36.432Z,19.06
2023-04-28T12:47:08.510Z,16.84
2023-04-28T12:49:55.576Z,19.50
2023-04-28T12:52:22.365Z,19.43
2023-04-28T12:54:52.382Z,18.44
2023-04-28T12:57:21.854Z,17.38
2023-04-28T12:59:51.921Z,15.81
2023-04-28T13:02:21.797Z,16.89
2023-04-28T13:04:54.105Z,15.95
2023-04-28T13:07:23.926Z,16.99
2023-04-28T13:10:01.356Z,16.79
2023-04-28T13:12:52.521Z,15.58
2023-04-28T13:15:23.518Z,14.84
2023-04-28T13:18:15.313Z,16.80
2023-04-28T13:20:46.736Z,15.39
2023-04-28T13:23:13.051Z,13.93
2023-04-28T13:25:42.610Z,13.53
2023-04-28T13:28:09.364Z,16.19
2023-04-28T13:30:35.779Z,15.40
2023-04-28T13:33:02.202Z,16.59
2023-04-28T13:35:34.207Z,17.44
2023-04-28T13:38:00.677Z,17.16
2023-04-28T13:40:27.616Z,15.06
2023-04-28T13:42:54.632Z,13.02
2023-04-28T13:45:22.516Z,12.87
2023-04-28T13:47:49.331Z,13.62
2023-04-28T13:50:17.144Z,16.28
2023-04-28T13:52:43.574Z,15.89
2023-04-28T13:55:09.982Z,14.27
2023-04-28T13:57:36.721Z,14.88
2023-04-28T14:00:03.500Z,16.10
2023-04-28T14:02:33.855Z,16.63
2023-04-28T14:05:00.448Z,17.01
2023-04-28T14:07:30.345Z,16.04
2023-04-28T14:10:00.471Z,16.64
2023-04-28T14:12:30.524Z,16.59
2023-04-28T14:14:57.275Z,16.38
2023-04-28T14:17:24.437Z,15.35
2023-04-28T14:19:52.846Z,15.17
2023-04-28T14:22:19.605Z,14.81
2023-04-28T14:24:46.719Z,12.66
2023-04-28T14:27:16.086Z,14.46
2023-04-28T14:29:44.922Z,14.66
2023-04-28T14:32:11.705Z,15.19
2023-04-28T14:34:38.333Z,14.58
2023-04-28T14:37:05.270Z,14.52
2023-04-28T14:39:31.892Z,14.02
2023-04-28T14:41:58.286Z,14.62
2023-04-28T14:44:24.659Z,12.96
2023-04-28T14:46:51.100Z,13.10
2023-04-28T14:49:17.585Z,14.86
2023-04-28T14:51:44.103Z,15.61
2023-04-28T14:54:10.684Z,16.06
2023-04-28T14:56:37.295Z,16.44
2023-04-28T14:59:03.636Z,16.52
2023-04-28T15:01:30.219Z,16.78
2023-04-28T15:03:57.175Z,17.03
2023-04-28T15:06:23.811Z,17.02
2023-04-28T15:08:50.219Z,17.27
2023-04-28T15:11:16.629Z,17.14
2023-04-28T15:13:43.192Z,17.12
2023-04-28T15:16:09.635Z,16.76
2023-04-28T15:18:36.024Z,16.33
2023-04-28T15:21:02.616Z,17.53
2023-04-28T15:23:35.171Z,19.56
2023-04-28T15:26:01.976Z,19.02
2023-04-28T15:28:28.349Z,18.65
2023-04-28T15:30:54.610Z,18.44
2023-04-28T15:33:20.982Z,19.03
2023-04-28T15:35:47.481Z,19.33
2023-04-28T15:38:14.099Z,19.47
2023-04-28T15:40:40.652Z,19.99
2023-04-28T15:43:07.216Z,19.80
2023-04-28T15:45:33.797Z,20.11
2023-04-28T15:48:00.392Z,20.15
2023-04-28T15:50:26.813Z,20.49
2023-04-28T15:52:53.302Z,20.96
2023-04-28T15:55:20.521Z,21.14
2023-04-28T15:57:47.350Z,20.84
2023-04-28T16:00:14.431Z,20.76
2023-04-28T16:02:41.433Z,20.05
2023-04-28T16:05:08.447Z,20.51
2023-04-28T16:07:35.000Z,20.91
2023-04-28T16:10:08.181Z,21.34
2023-04-28T16:12:35.492Z,21.79
2023-04-28T16:15:01.816Z,22.35
2023-04-28T16:17:28.209Z,23.57
2023-04-28T16:19:54.810Z,23.36
2023-04-28T16:22:22.134Z,22.90
2023-04-28T16:24:49.165Z,23.93
2023-04-28T16:27:15.637Z,24.70
2023-04-28T16:29:42.116Z,23.59
2023-04-28T16:32:08.791Z,23.78
2023-04-28T16:34:35.368Z,24.49
2023-04-28T16:37:01.956Z,26.66
2023-04-28T16:39:28.426Z,26.97
2023-04-28T16:41:54.784Z,26.09
2023-04-28T16:44:21.255Z,25.39
2023-04-28T16:46:47.583Z,25.93
2023-04-28T16:49:13.895Z,26.20
2023-04-28T16:51:53.903Z,26.48
2023-04-28T16:54:20.300Z,28.16
2023-04-28T16:56:46.646Z,28.98
2023-04-28T16:59:13.020Z,29.36
2023-04-28T17:01:39.524Z,29.41
2023-04-28T17:04:06.083Z,30.24
2023-04-28T17:06:32.516Z,30.55
2023-04-28T17:08:58.981Z,31.02
2023-04-28T17:11:25.538Z,30.70
2023-04-28T17:13:54.224Z,31.32
2023-04-28T17:16:20.623Z,31.33
2023-04-28T17:18:47.137Z,31.72
2023-04-28T17:21:14.018Z,32.24
2023-04-28T17:23:40.481Z,32.17
2023-04-28T17:26:07.200Z,31.34
2023-04-28T17:28:33.649Z,31.17
2023-04-28T17:31:00.116Z,31.74
2023-04-28T17:33:26.615Z,37.61
2023-04-28T17:35:52.962Z,40.05
2023-04-28T17:38:19.320Z,40.81
2023-04-28T17:40:45.729Z,37.16
2023-04-28T17:43:12.065Z,35.98
2023-04-28T17:45:38.413Z,38.27
2023-04-28T17:48:04.968Z,37.24
2023-04-28T17:50:31.452Z,35.12
2023-04-28T17:52:57.790Z,35.06
2023-04-28T17:55:24.158Z,35.72
2023-04-28T17:57:50.535Z,37.45
2023-04-28T18:00:17.066Z,36.38
2023-04-28T18:02:43.586Z,36.77
2023-04-28T18:05:10.132Z,36.74
2023-04-28T18:07:36.593Z,35.92
2023-04-28T18:10:03.009Z,35.83
2023-04-28T18:12:29.417Z,35.85
2023-04-28T18:14:55.842Z,35.75
2023-04-28T18:17:22.462Z,36.96
2023-04-28T18:19:49.338Z,36.46
2023-04-28T18:22:15.732Z,36.12
2023-04-28T18:24:42.260Z,36.39
2023-04-28T18:27:08.608Z,36.87
2023-04-28T18:29:34.968Z,36.96
2023-04-28T18:32:01.424Z,37.13
2023-04-28T18:34:27.815Z,37.67
2023-04-28T18:36:54.142Z,37.66
2023-04-28T18:39:20.471Z,37.46
2023-04-28T18:41:47.131Z,37.52
2023-04-28T18:44:13.649Z,37.58
2023-04-28T18:46:40.118Z,37.57
2023-04-28T18:49:06.642Z,37.60
2023-04-28T18:51:32.999Z,37.65
2023-04-28T18:53:59.341Z,37.84
2023-04-28T18:56:25.905Z,37.79
2023-04-28T18:58:52.270Z,38.02
2023-04-28T19:01:18.796Z,38.31
2023-04-28T19:03:45.503Z,38.75
2023-04-28T19:06:12.243Z,39.18
2023-04-28T19:08:38.958Z,39.54
2023-04-28T19:11:06.125Z,39.84
2023-04-28T19:13:33.384Z,41.18
2023-04-28T19:15:59.711Z,43.27
2023-04-28T19:18:26.121Z,41.71
2023-04-28T19:21:02.450Z,39.87
2023-04-28T19:23:29.245Z,39.67
2023-04-28T19:25:57.461Z,39.43
2023-04-28T19:28:24.401Z,39.61
2023-04-28T19:30:55.237Z,40.77
2023-04-28T19:33:22.331Z,40.74
2023-04-28T19:35:49.371Z,41.67
2023-04-28T19:38:16.924Z,42.99
2023-04-28T19:40:44.024Z,42.78
2023-04-28T19:43:10.697Z,44.17
2023-04-28T19:45:38.610Z,42.45
2023-04-28T19:48:06.036Z,41.73
2023-04-28T19:50:32.562Z,41.17
2023-04-28T19:52:59.179Z,40.92
2023-04-28T19:55:25.568Z,40.69
2023-04-28T19:57:52.060Z,41.21
2023-04-28T20:00:18.890Z,41.83
2023-04-28T20:02:45.432Z,41.57
2023-04-28T20:05:11.871Z,42.10
2023-04-28T20:07:38.764Z,42.58
2023-04-28T20:10:05.459Z,42.41
2023-04-28T20:12:31.919Z,42.65
2023-04-28T20:14:58.437Z,42.81
2023-04-28T20:17:24.927Z,42.61
2023-04-28T20:19:51.741Z,42.41
2023-04-28T20:22:18.430Z,42.33
2023-04-28T20:24:45.039Z,42.50
2023-04-28T20:27:11.986Z,43.01
2023-04-28T20:29:38.643Z,43.39
2023-04-28T20:32:05.041Z,42.95
2023-04-28T20:34:31.397Z,43.16
2023-04-28T20:36:58.449Z,43.54
2023-04-28T20:39:25.375Z,44.07
2023-04-28T20:41:51.871Z,45.68
2023-04-28T20:44:18.223Z,45.03
2023-04-28T20:46:47.589Z,43.74
2023-04-28T20:49:14.552Z,43.49
2023-04-28T20:51:41.662Z,43.42
2023-04-28T20:54:08.023Z,44.24
2023-04-28T20:56:34.734Z,44.99
2023-04-28T20:59:01.238Z,44.91
2023-04-28T21:01:27.687Z,46.11
2023-04-28T21:03:54.239Z,45.77
2023-04-28T21:06:20.857Z,45.62
2023-04-28T21:08:47.211Z,44.80
2023-04-28T21:11:14.432Z,44.89
2023-04-28T21:13:41.450Z,44.45
2023-04-28T21:16:21.994Z,44.35
2023-04-28T21:18:48.804Z,44.05
2023-04-28T21:21:15.109Z,44.05
2023-04-28T21:23:41.454Z,44.37
2023-04-28T21:26:08.410Z,44.33
2023-04-28T21:28:35.649Z,44.62
2023-04-28T21:31:02.712Z,44.77
2023-04-28T21:33:29.882Z,44.38
2023-04-28T21:35:56.518Z,44.20
2023-04-28T21:38:23.521Z,44.13
2023-04-28T21:40:50.000Z,44.18
2023-04-28T21:43:16.353Z,44.31
2023-04-28T21:45:42.715Z,44.27
2023-04-28T21:48:09.236Z,44.32
2023-04-28T21:50:35.685Z,44.50
2023-04-28T21:53:02.102Z,44.47
2023-04-28T21:55:28.617Z,44.43
2023-04-28T21:57:54.956Z,44.51
2023-04-28T22:00:21.372Z,44.56
2023-04-28T22:02:47.804Z,44.69
2023-04-28T22:05:14.427Z,45.08
2023-04-28T22:07:41.114Z,45.19
2023-04-28T22:10:08.297Z,45.61
2023-04-28T22:12:34.653Z,45.55
2023-04-28T22:15:01.102Z,45.31
2023-04-28T22:17:27.511Z,45.45
2023-04-28T22:19:53.920Z,45.50
2023-04-28T22:22:20.380Z,45.54
2023-04-28T22:24:46.720Z,45.59
2023-04-28T22:27:13.018Z,45.64
2023-04-28T22:29:39.401Z,45.72
2023-04-28T22:32:05.734Z,45.74
2023-04-28T22:34:32.018Z,45.71
2023-04-28T22:36:58.345Z,45.76
2023-04-28T22:39:24.643Z,45.76
2023-04-28T22:41:50.961Z,45.85
2023-04-28T22:44:17.243Z,45.95
2023-04-28T22:46:43.542Z,46.10
2023-04-28T22:49:09.979Z,46.44
2023-04-28T22:51:36.316Z,46.52
2023-04-28T22:54:02.730Z,46.67
2023-04-28T22:56:29.187Z,46.62
2023-04-28T22:58:55.572Z,46.69
2023-04-28T23:01:21.914Z,46.95
2023-04-28T23:03:48.356Z,47.21
2023-04-28T23:06:14.719Z,47.10
2023-04-28T23:08:41.037Z,47.20
2023-04-28T23:11:07.507Z,47.30
2023-04-28T23:13:34.004Z,47.50
2023-04-28T23:16:00.462Z,47.50
2023-04-28T23:18:32.764Z,47.74
2023-04-28T23:20:59.015Z,47.98
2023-04-28T23:23:25.335Z,48.06
2023-04-28T23:25:51.892Z,48.08
2023-04-28T23:28:18.140Z,48.22
2023-04-28T23:30:44.500Z,48.40
2023-04-28T23:33:10.948Z,48.40
2023-04-28T23:35:37.236Z,48.50
2023-04-28T23:38:03.545Z,48.59
2023-04-28T23:40:29.892Z,48.80
2023-04-28T23:42:56.175Z,48.85
2023-04-28T23:45:22.649Z,48.87
2023-04-28T23:47:49.104Z,49.36
2023-04-28T23:50:15.503Z,50.08
2023-04-28T23:52:41.826Z,50.59
2023-04-28T23:55:08.533Z,49.98
2023-04-28T23:57:35.884Z,49.96
